• Join FlightAware (Why Join?)
  • Login
  • US Flag 
03:06AM EDT


 

Airport Tracker/Info


-or-


 

Live Flight TrackerFlight Track Log ✈ JBU51 ✈ 26-Apr-2013 ✈ KBTV - KJFK

Flight Track Log - Related Links

Times and Time Zones

All times are in EDT time to prevent confusion due to time zone crossing. See the JBU51 flight status page for this flight to view local times or setup timezone preferences in your user account.

Time Position Orientation Groundspeed Altitude Reporting Facility
EDT Latitude Longitude Course Direction KTS MPH feet Rate Location/Type
10:56AM 44.4689 -73.2489 196° South 156 180 5,400  Level Boston Center
10:57AM 44.2272 -73.2307 190° South  Level FlightAware Approximate
10:57AM 44.4125 -73.2683 194° South 183 211 9,300  Level Boston Center
10:58AM 44.1507 -73.2685 195° South  Level FlightAware Approximate
10:58AM 44.3456 -73.2936 195° South 230 265 11,200  Level Boston Center
10:59AM 44.0712 -73.2983 195° South  Level FlightAware Approximate
10:59AM 44.2642 -73.3214 194° South 285 328 13,900  Level Boston Center
11:00AM 43.9912 -73.3252 194° South  Level FlightAware Approximate
11:00AM 44.1722 -73.3519 193° South 326 375 15,600  Level Boston Center
11:01AM 43.9113 -73.3522 196° South  Level FlightAware Approximate
11:01AM 44.0594 -73.3878 193° South 372 428 18,100  Level Boston Center
11:02AM 43.9550 -73.4206 193° South 389 448 19,900 1,860 Climbing Boston Center
11:03AM 43.8464 -73.4564 193° South 406 467 21,900 1,860 Climbing Boston Center
11:04AM 43.7336 -73.4917 193° South 412 474 23,700 1,500 Climbing Boston Center
11:05AM 43.6519 -73.5189 194° South 420 483 25,000 1,440 Climbing Boston Center
11:06AM 43.5078 -73.5650 193° South 433 498 26,600 1,440 Climbing Boston Center
11:07AM 43.3864 -73.6028 193° South 443 510 27,900 660 Climbing Boston Center
11:08AM 43.2589 -73.6431 193° South 455 524 28,000  Climbing Boston Center
11:09AM 43.1231 -73.6861 193° South 455 524 28,000  Level Boston Center
11:10AM 42.9975 -73.7261 193° South 455 524 28,000  Level Boston Center
11:11AM 42.8719 -73.7658 193° South 460 529 28,000  Level Boston Center
11:12AM 42.7422 -73.8083 194° South 470 541 28,000  Level Boston Center
11:13AM 42.6150 -73.8281 187° South 470 541 28,000  Level Boston Center
11:14AM 42.4817 -73.8139 176° South 464 534 28,000  Level Boston Center
11:15AM 42.3503 -73.8139 180° South 476 548 28,000  Level Boston Center
11:16AM 42.2169 -73.8164 181° South 481 554 28,000  Level Boston Center
11:17AM 42.0856 -73.8192 181° South 481 554 28,000  Level Boston Center
11:18AM 41.9500 -73.8219 181° South 481 554 28,000 -480 Level Boston Center
11:20AM 41.7261 -73.9006 195° South 463 533 26,700 -1,380 Descending New York Center
11:21AM 41.6081 -73.9589 200° South 463 533 24,300 -2,460 Descending New York Center
11:22AM 41.4961 -74.0117 199° South 445 512 21,900 -2,160 Descending New York Center
11:23AM 41.3906 -74.0647 201° Southwest 429 494 20,000 -960 Descending New York Center
11:24AM 41.2925 -74.1425 211° Southwest 408 470 20,000  Level New York Center
11:25AM 41.2094 -74.2131 213° Southwest 408 470 20,000 -540 Level New York Center
11:26AM 41.1056 -74.2736 204° Southwest 408 470 19,000 -720 Descending New York Center
11:26AM 41.0333 -74.2667 176° South 422 486 19,000  Level New York TRACON
11:27AM 40.9333 -74.1833 148° Southeast 432 497 19,000  Level New York TRACON
11:28AM 40.8833 -74.0833 123° Southeast 370 426 19,000 -540 Level New York TRACON
11:29AM 40.8333 -73.9500 116° Southeast 359 413 18,000 -1,260 Descending New York TRACON
11:30AM 40.7667 -73.8500 131° Southeast 344 396 16,400 -1,740 Descending New York TRACON
11:31AM 40.7167 -73.7667 128° Southeast 334 384 14,700 -2,280 Descending New York TRACON
11:32AM 40.6500 -73.7000 143° Southeast 391 450 12,100 -2,580 Descending New York TRACON
11:33AM 40.5667 -73.6667 163° South 286 329 9,500 -2,100 Descending New York TRACON
11:34AM 40.4833 -73.6500 171° South 276 318 7,900 -1,800 Descending New York TRACON
11:35AM 40.4500 -73.7333 242° Southwest 262 302 6,000 -2,040 Descending New York TRACON
11:36AM 40.4667 -73.8167 285° West 249 287 3,900 -1,620 Descending New York TRACON
11:37AM 40.5167 -73.8667 323° Northwest 226 260 2,800 -1,080 Descending New York TRACON
11:38AM 40.5500 -73.8333 37° Northeast 162 186 1,800 -1,020 Descending New York TRACON
11:39AM 40.5833 -73.8167 21° North 138 159 800 -900 Descending New York TRACON
11:40AM 40.6167 -73.7833 37° Northeast 137 158 100 -720 Descending New York TRACON